Time;durP1;ratioP1;P1;durP2;ratioP2;P2;SDS_P1;SDS_P2;PMS_P1;PMS_P2;Temp;Humidity;BMP_temperature;BMP_pressure;BME280_temperature;BME280_humidity;BME280_pressure;Samples;Min_cycle;Max_cycle;Signal;HPM_P1;HPM_P2
2023/05/15 00:01:22;;;;;;;4.30;2.57;;;;;;;;;;5088147;28;20028;-63
2023/05/15 00:03:50;;;;;;;3.47;2.43;;;;;;;;;;5087915;28;20024;-63
2023/05/15 00:06:17;;;;;;;3.50;2.23;;;;;;;;;;5088644;28;20020;-63
2023/05/15 00:08:44;;;;;;;4.47;2.67;;;;;;;;;;5092557;28;20031;-63
2023/05/15 00:11:11;;;;;;;7.23;2.17;;;;;;;;;;5092751;28;20052;-63
2023/05/15 00:13:38;;;;;;;2.60;1.70;;;;;;;;;;5093142;28;20024;-63
2023/05/15 00:16:06;;;;;;;2.60;2.13;;;;;;;;;;5091536;28;20024;-63
2023/05/15 00:18:33;;;;;;;9.00;1.97;;;;;;;;;;5092264;28;20122;-63
2023/05/15 00:21:00;;;;;;;5.53;2.50;;;;;;;;;;5087487;28;20177;-63
2023/05/15 00:23:26;;;;;;;4.27;2.10;;;;;;;;;;5087982;28;20024;-64
2023/05/15 00:25:53;;;;;;;3.90;2.60;;;;;;;;;;5087366;28;20024;-63
2023/05/15 00:28:20;;;;;;;4.43;2.93;;;;;;;;;;5087779;28;20490;-63
2023/05/15 00:30:47;;;;;;;2.10;1.57;;;;;;;;;;5092678;28;20021;-63
2023/05/15 00:33:13;;;;;;;3.97;2.23;;;;;;;;;;5092608;28;20502;-63
2023/05/15 00:35:40;;;;;;;3.60;2.10;;;;;;;;;;5092753;28;20039;-63
2023/05/15 00:38:07;;;;;;;3.73;2.70;;;;;;;;;;5092334;28;20044;-64
2023/05/15 00:40:34;;;;;;;3.70;2.60;;;;;;;;;;5092552;28;20371;-63
2023/05/15 00:43:02;;;;;;;3.23;2.27;;;;;;;;;;5087388;28;20119;-63
2023/05/15 00:45:29;;;;;;;6.03;3.23;;;;;;;;;;5087481;28;20031;-63
2023/05/15 00:47:57;;;;;;;6.83;3.77;;;;;;;;;;5087437;28;20043;-63
2023/05/15 00:50:24;;;;;;;5.27;4.00;;;;;;;;;;5086058;28;20024;-63
2023/05/15 00:52:51;;;;;;;3.97;3.13;;;;;;;;;;5091803;28;20050;-63
2023/05/15 00:55:18;;;;;;;7.37;3.33;;;;;;;;;;5092252;28;20558;-63
2023/05/15 00:57:45;;;;;;;5.30;2.80;;;;;;;;;;5092413;28;20050;-63
2023/05/15 01:00:15;;;;;;;3.27;2.73;;;;;;;;;;5091824;28;20081;-63
2023/05/15 01:02:42;;;;;;;3.57;2.60;;;;;;;;;;5092325;28;20499;-63
2023/05/15 01:05:09;;;;;;;5.93;3.27;;;;;;;;;;5087588;28;20506;-63
2023/05/15 01:07:40;;;;;;;3.57;2.03;;;;;;;;;;5087137;28;20028;-63
2023/05/15 01:10:08;;;;;;;3.13;1.90;;;;;;;;;;5087047;28;20470;-63
2023/05/15 01:12:35;;;;;;;2.83;2.07;;;;;;;;;;5086979;28;20024;-63
2023/05/15 01:15:02;;;;;;;5.13;2.73;;;;;;;;;;5091208;28;20446;-63
2023/05/15 01:17:29;;;;;;;3.97;2.90;;;;;;;;;;5092305;28;20085;-63
2023/05/15 01:19:56;;;;;;;3.87;2.40;;;;;;;;;;5092167;28;20035;-63
2023/05/15 01:22:26;;;;;;;25.50;3.00;;;;;;;;;;5093455;28;20096;-63
2023/05/15 01:25:11;;;;;;;5.20;2.67;;;;;;;;;;5095084;28;20035;-63
2023/05/15 01:27:50;;;;;;;4.20;2.55;;;;;;;;;;5089652;28;20482;-63
2023/05/15 01:30:23;;;;;;;3.67;2.50;;;;;;;;;;5091075;28;20060;-63
2023/05/15 01:32:58;;;;;;;4.30;2.43;;;;;;;;;;5091169;28;20047;-63
2023/05/15 01:35:24;;;;;;;;;;;;;;;;;;5091588;28;20055;-64
2023/05/15 01:37:54;;;;;;;6.47;2.30;;;;;;;;;;5096201;28;19904;-64
2023/05/15 01:40:22;;;;;;;2.83;2.20;;;;;;;;;;5096156;28;20427;-64
2023/05/15 01:42:55;;;;;;;4.87;2.60;;;;;;;;;;5096036;28;20449;-63
2023/05/15 01:45:24;;;;;;;6.10;1.70;;;;;;;;;;5095914;28;20028;-63
2023/05/15 01:47:53;;;;;;;2.80;1.77;;;;;;;;;;5095161;28;20024;-64
2023/05/15 01:50:20;;;;;;;2.20;1.90;;;;;;;;;;5089409;28;20032;-63
2023/05/15 01:52:51;;;;;;;6.00;2.17;;;;;;;;;;5089086;28;20047;-64
2023/05/15 01:55:19;;;;;;;1.63;1.00;;;;;;;;;;5090673;28;20051;-63
2023/05/15 01:57:47;;;;;;;2.17;1.50;;;;;;;;;;5089393;28;20387;-63
2023/05/15 02:00:14;;;;;;;3.70;1.53;;;;;;;;;;5095574;28;20082;-63
2023/05/15 02:02:41;;;;;;;2.90;1.93;;;;;;;;;;5095543;28;20032;-64
2023/05/15 02:05:09;;;;;;;1.13;0.97;;;;;;;;;;5095502;28;20016;-63
2023/05/15 02:07:37;;;;;;;2.80;1.93;;;;;;;;;;5095415;28;20059;-64
2023/05/15 02:10:04;;;;;;;1.87;1.23;;;;;;;;;;5095110;28;20046;-63
2023/05/15 02:12:31;;;;;;;1.67;1.47;;;;;;;;;;5090420;28;20541;-63
2023/05/15 02:14:58;;;;;;;2.67;1.63;;;;;;;;;;5090428;28;20039;-63
2023/05/15 02:17:25;;;;;;;3.30;1.93;;;;;;;;;;5090319;28;20051;-63
2023/05/15 02:19:52;;;;;;;2.70;1.90;;;;;;;;;;5090204;28;20032;-65
2023/05/15 02:22:18;;;;;;;1.50;1.07;;;;;;;;;;5094663;28;20113;-63
2023/05/15 02:24:45;;;;;;;1.33;1.17;;;;;;;;;;5095096;28;20387;-64
2023/05/15 02:27:41;;;;;;;1.67;1.23;;;;;;;;;;5094973;28;20024;-63
2023/05/15 02:30:07;;;;;;;;;;;;;;;;;;5078547;28;20038;-63
2023/05/15 02:32:49;;;;;;;2.57;1.40;;;;;;;;;;5094291;28;19915;-63
2023/05/15 02:35:24;;;;;;;1.53;1.13;;;;;;;;;;5089921;28;20016;-63
2023/05/15 02:37:54;;;;;;;1.27;1.07;;;;;;;;;;5089757;28;20383;-63
2023/05/15 02:40:23;;;;;;;2.43;1.17;;;;;;;;;;5089610;28;20044;-63
2023/05/15 02:42:53;;;;;;;2.67;1.47;;;;;;;;;;5089457;28;20073;-63
2023/05/15 02:45:20;;;;;;;3.67;1.90;;;;;;;;;;5094701;28;20371;-63
2023/05/15 02:47:49;;;;;;;2.37;1.60;;;;;;;;;;5094182;28;20024;-63
2023/05/15 02:50:16;;;;;;;5.23;1.90;;;;;;;;;;5094761;28;20020;-63
2023/05/15 02:52:43;;;;;;;3.60;1.73;;;;;;;;;;5093192;28;20101;-63
2023/05/15 02:55:10;;;;;;;3.67;1.87;;;;;;;;;;5093063;28;20077;-63
2023/05/15 02:57:36;;;;;;;1.30;1.07;;;;;;;;;;5089488;28;20108;-63
2023/05/15 03:00:08;;;;;;;3.13;2.03;;;;;;;;;;5089431;28;20032;-63
2023/05/15 03:02:34;;;;;;;4.13;2.50;;;;;;;;;;5088998;28;20111;-63
2023/05/15 03:05:01;;;;;;;3.13;1.93;;;;;;;;;;5090151;28;20506;-63
2023/05/15 03:07:28;;;;;;;2.37;1.63;;;;;;;;;;5094477;28;20054;-63
2023/05/15 03:09:55;;;;;;;1.43;1.30;;;;;;;;;;5094323;28;20077;-63
2023/05/15 03:12:22;;;;;;;1.77;1.50;;;;;;;;;;5094137;28;20028;-63
2023/05/15 03:14:49;;;;;;;2.73;1.90;;;;;;;;;;5094176;28;20028;-63
2023/05/15 03:17:15;;;;;;;1.77;1.40;;;;;;;;;;5093293;28;20387;-65
2023/05/15 03:19:42;;;;;;;2.27;1.63;;;;;;;;;;5088596;28;20817;-63
2023/05/15 03:22:09;;;;;;;3.40;2.07;;;;;;;;;;5088837;28;20073;-63
2023/05/15 03:24:36;;;;;;;5.07;2.40;;;;;;;;;;5089184;28;20478;-63
2023/05/15 03:27:03;;;;;;;3.27;1.97;;;;;;;;;;5089177;28;20081;-64
2023/05/15 03:29:30;;;;;;;2.97;1.90;;;;;;;;;;5093875;28;20502;-63
2023/05/15 03:31:57;;;;;;;4.10;2.40;;;;;;;;;;5093894;28;20028;-65
2023/05/15 03:34:24;;;;;;;3.50;2.43;;;;;;;;;;5093866;28;20099;-64
2023/05/15 03:36:50;;;;;;;2.43;1.87;;;;;;;;;;5093450;28;20024;-63
2023/05/15 03:39:17;;;;;;;6.00;2.50;;;;;;;;;;5093427;28;20020;-63
2023/05/15 03:41:44;;;;;;;3.70;2.43;;;;;;;;;;5088589;28;20506;-63
2023/05/15 03:44:10;;;;;;;4.83;2.17;;;;;;;;;;5088574;28;20024;-63
2023/05/15 03:46:37;;;;;;;5.03;2.60;;;;;;;;;;5088095;28;20391;-63
2023/05/15 03:49:04;;;;;;;5.43;3.03;;;;;;;;;;5088572;28;20032;-63
2023/05/15 03:51:31;;;;;;;9.67;2.47;;;;;;;;;;5093239;28;20047;-63
2023/05/15 03:53:57;;;;;;;8.20;3.93;;;;;;;;;;5091977;28;20035;-63
2023/05/15 03:56:24;;;;;;;8.50;3.67;;;;;;;;;;5093570;28;20048;-64
2023/05/15 03:58:51;;;;;;;4.23;3.20;;;;;;;;;;5093540;28;20066;-63
2023/05/15 04:01:18;;;;;;;5.53;3.70;;;;;;;;;;5093304;28;20050;-63
2023/05/15 04:03:44;;;;;;;5.43;3.53;;;;;;;;;;5088294;28;20493;-63
2023/05/15 04:06:11;;;;;;;4.00;3.10;;;;;;;;;;5088194;28;20551;-64
2023/05/15 04:08:38;;;;;;;5.60;2.73;;;;;;;;;;5088280;28;20467;-63
2023/05/15 04:11:05;;;;;;;5.63;3.10;;;;;;;;;;5088050;28;20024;-63
2023/05/15 04:13:32;;;;;;;4.47;3.20;;;;;;;;;;5092037;28;20422;-64
2023/05/15 04:15:59;;;;;;;4.03;2.90;;;;;;;;;;5093168;28;20032;-63
2023/05/15 04:18:26;;;;;;;4.43;2.50;;;;;;;;;;5092922;28;20032;-63
2023/05/15 04:20:53;;;;;;;8.40;2.90;;;;;;;;;;5092863;28;20050;-63
2023/05/15 04:23:20;;;;;;;3.37;2.47;;;;;;;;;;5092990;28;20036;-64
2023/05/15 04:25:47;;;;;;;3.30;2.43;;;;;;;;;;5088623;28;20103;-64
2023/05/15 04:28:14;;;;;;;3.13;2.43;;;;;;;;;;5087904;28;20035;-63
2023/05/15 04:30:40;;;;;;;4.17;3.10;;;;;;;;;;5087576;28;20107;-63
2023/05/15 04:33:07;;;;;;;8.30;3.00;;;;;;;;;;5087890;28;20047;-63
2023/05/15 04:35:34;;;;;;;3.10;2.23;;;;;;;;;;5091228;28;20020;-63
2023/05/15 04:38:01;;;;;;;4.67;2.93;;;;;;;;;;5092514;28;20028;-64
2023/05/15 04:40:28;;;;;;;6.67;2.67;;;;;;;;;;5092640;28;20553;-63
2023/05/15 04:42:55;;;;;;;4.73;3.00;;;;;;;;;;5092601;28;20415;-64
2023/05/15 04:45:23;;;;;;;3.30;2.17;;;;;;;;;;5092566;28;20024;-63
2023/05/15 04:47:50;;;;;;;3.80;2.80;;;;;;;;;;5088881;28;20035;-63
2023/05/15 04:50:17;;;;;;;2.80;2.20;;;;;;;;;;5087859;28;20036;-63
2023/05/15 04:52:44;;;;;;;4.10;2.77;;;;;;;;;;5087534;28;20081;-63
2023/05/15 04:55:11;;;;;;;8.20;2.67;;;;;;;;;;5087309;28;20050;-63
2023/05/15 04:57:37;;;;;;;4.33;3.27;;;;;;;;;;5089586;28;20020;-63
2023/05/15 05:00:11;;;;;;;4.20;2.63;;;;;;;;;;5092307;28;20032;-63
2023/05/15 05:02:42;;;;;;;3.30;2.53;;;;;;;;;;5092283;28;20020;-63
2023/05/15 05:05:09;;;;;;;3.50;2.30;;;;;;;;;;5092619;28;20033;-63
2023/05/15 05:07:36;;;;;;;2.63;2.00;;;;;;;;;;5092404;28;20028;-63
2023/05/15 05:10:04;;;;;;;2.60;1.90;;;;;;;;;;5088881;28;20052;-63
2023/05/15 05:12:31;;;;;;;3.43;1.97;;;;;;;;;;5087179;28;20080;-63
2023/05/15 05:14:57;;;;;;;3.73;2.33;;;;;;;;;;5087299;28;20450;-63
2023/05/15 05:17:24;;;;;;;2.20;1.70;;;;;;;;;;5087035;28;20028;-63
2023/05/15 05:19:51;;;;;;;4.13;2.40;;;;;;;;;;5089965;28;20063;-64
2023/05/15 05:22:17;;;;;;;3.60;2.47;;;;;;;;;;5092633;28;20442;-63
2023/05/15 05:24:44;;;;;;;2.03;1.60;;;;;;;;;;5092137;28;20505;-63
2023/05/15 05:27:11;;;;;;;2.37;1.70;;;;;;;;;;5092342;28;20020;-63
2023/05/15 05:29:38;;;;;;;2.30;1.60;;;;;;;;;;5092147;28;20024;-63
2023/05/15 05:32:06;;;;;;;7.27;2.73;;;;;;;;;;5087817;28;20032;-63
2023/05/15 05:34:33;;;;;;;4.73;2.93;;;;;;;;;;5086892;28;20035;-63
2023/05/15 05:36:59;;;;;;;4.30;3.00;;;;;;;;;;5087097;28;20039;-63
2023/05/15 05:39:26;;;;;;;3.67;2.43;;;;;;;;;;5087142;28;20472;-63
2023/05/15 05:41:53;;;;;;;6.37;2.10;;;;;;;;;;5089360;28;20506;-63
2023/05/15 05:44:20;;;;;;;4.87;2.63;;;;;;;;;;5092220;28;20032;-63
2023/05/15 05:46:46;;;;;;;6.10;2.63;;;;;;;;;;5091992;28;20024;-63
2023/05/15 05:49:13;;;;;;;3.63;2.80;;;;;;;;;;5092017;28;20022;-63
2023/05/15 05:51:40;;;;;;;3.00;2.47;;;;;;;;;;5091722;28;20119;-63
2023/05/15 05:54:07;;;;;;;5.00;2.73;;;;;;;;;;5089512;28;20040;-63
2023/05/15 05:56:33;;;;;;;4.03;2.63;;;;;;;;;;5087019;28;20427;-63
2023/05/15 05:59:00;;;;;;;3.90;2.60;;;;;;;;;;5086744;28;20027;-63
2023/05/15 06:01:27;;;;;;;2.33;1.80;;;;;;;;;;5086792;28;20032;-63
2023/05/15 06:03:54;;;;;;;7.87;3.23;;;;;;;;;;5088496;28;20024;-63
2023/05/15 06:06:21;;;;;;;3.73;2.40;;;;;;;;;;5092005;28;20023;-63
2023/05/15 06:08:48;;;;;;;5.00;2.93;;;;;;;;;;5093305;28;20059;-63
2023/05/15 06:11:14;;;;;;;4.60;2.50;;;;;;;;;;5095476;28;20024;-63
2023/05/15 06:13:42;;;;;;;2.73;2.37;;;;;;;;;;5095602;28;20028;-63
2023/05/15 06:16:09;;;;;;;2.77;2.17;;;;;;;;;;5093187;28;20054;-63
2023/05/15 06:18:35;;;;;;;2.87;2.40;;;;;;;;;;5090382;28;20081;-63
2023/05/15 06:21:02;;;;;;;6.80;3.40;;;;;;;;;;5089963;28;20024;-63
2023/05/15 06:23:29;;;;;;;6.60;2.80;;;;;;;;;;5090709;28;20107;-63
2023/05/15 06:25:56;;;;;;;5.93;3.43;;;;;;;;;;5091163;28;20077;-63
2023/05/15 06:28:22;;;;;;;5.00;2.30;;;;;;;;;;5093777;28;20062;-63
2023/05/15 06:30:49;;;;;;;4.33;3.20;;;;;;;;;;5095174;28;20505;-62
2023/05/15 06:33:16;;;;;;;3.13;2.60;;;;;;;;;;5095185;28;20024;-63
2023/05/15 06:35:43;;;;;;;7.27;2.37;;;;;;;;;;5095077;28;20028;-63
2023/05/15 06:38:09;;;;;;;3.30;2.80;;;;;;;;;;5093229;28;20028;-64
2023/05/15 06:40:36;;;;;;;4.47;2.90;;;;;;;;;;5089705;28;20028;-63
2023/05/15 06:43:03;;;;;;;4.10;3.33;;;;;;;;;;5089515;28;20128;-63
2023/05/15 06:45:32;;;;;;;5.63;3.70;;;;;;;;;;5089732;28;20020;-63
2023/05/15 06:47:59;;;;;;;4.13;3.23;;;;;;;;;;5090492;28;20483;-63
2023/05/15 06:50:25;;;;;;;6.10;3.50;;;;;;;;;;5094775;28;20039;-63
2023/05/15 06:52:53;;;;;;;4.30;2.60;;;;;;;;;;5094730;28;20077;-62
2023/05/15 06:55:20;;;;;;;3.80;2.87;;;;;;;;;;5094613;28;20028;-63
2023/05/15 06:57:47;;;;;;;6.60;2.97;;;;;;;;;;5094771;28;20032;-63
2023/05/15 07:00:14;;;;;;;4.33;3.20;;;;;;;;;;5093019;28;20028;-64
2023/05/15 07:02:41;;;;;;;3.43;2.77;;;;;;;;;;5089303;28;20016;-63
2023/05/15 07:05:09;;;;;;;4.20;3.27;;;;;;;;;;5089512;28;20020;-63
2023/05/15 07:07:36;;;;;;;7.90;2.63;;;;;;;;;;5089349;28;20028;-65
2023/05/15 07:10:03;;;;;;;5.57;3.27;;;;;;;;;;5089611;28;20043;-64
2023/05/15 07:12:31;;;;;;;3.57;2.70;;;;;;;;;;5094232;28;20016;-63
2023/05/15 07:14:58;;;;;;;11.27;2.67;;;;;;;;;;5093767;28;20031;-63
2023/05/15 07:17:25;;;;;;;7.17;2.83;;;;;;;;;;5094358;28;20509;-63
2023/05/15 07:19:51;;;;;;;4.23;2.80;;;;;;;;;;5093224;28;20073;-63
2023/05/15 07:22:18;;;;;;;3.60;2.97;;;;;;;;;;5093507;28;20016;-63
2023/05/15 07:24:46;;;;;;;3.03;2.40;;;;;;;;;;5089115;28;20024;-62
2023/05/15 07:27:13;;;;;;;3.70;2.97;;;;;;;;;;5089102;28;20016;-63
2023/05/15 07:29:40;;;;;;;5.47;2.90;;;;;;;;;;5088826;28;20036;-64
2023/05/15 07:32:06;;;;;;;3.33;2.57;;;;;;;;;;5088498;28;20052;-63
2023/05/15 07:34:33;;;;;;;3.63;2.90;;;;;;;;;;5093836;28;20020;-63
2023/05/15 07:37:00;;;;;;;3.63;2.83;;;;;;;;;;5093915;28;20065;-63
2023/05/15 07:39:27;;;;;;;5.20;3.23;;;;;;;;;;5093909;28;20035;-64
2023/05/15 07:41:53;;;;;;;4.60;2.80;;;;;;;;;;5092317;28;20371;-63
2023/05/15 07:44:20;;;;;;;4.00;2.90;;;;;;;;;;5093556;28;20467;-64
2023/05/15 07:46:47;;;;;;;4.23;3.20;;;;;;;;;;5088386;28;20027;-63
2023/05/15 07:49:14;;;;;;;11.80;3.20;;;;;;;;;;5088166;28;20383;-63
2023/05/15 07:51:41;;;;;;;5.40;2.67;;;;;;;;;;5088627;28;20031;-63
2023/05/15 07:54:08;;;;;;;3.40;2.37;;;;;;;;;;5088565;28;20395;-63
2023/05/15 07:56:35;;;;;;;3.70;2.50;;;;;;;;;;5092969;28;20032;-62
2023/05/15 07:59:01;;;;;;;5.13;2.63;;;;;;;;;;5093385;28;20533;-63
2023/05/15 08:01:28;;;;;;;3.50;2.67;;;;;;;;;;5093351;28;20390;-63
2023/05/15 08:03:56;;;;;;;6.37;3.30;;;;;;;;;;5093395;28;20031;-62
2023/05/15 08:06:23;;;;;;;4.43;3.37;;;;;;;;;;5093294;28;20027;-62
2023/05/15 08:08:50;;;;;;;2.97;2.10;;;;;;;;;;5088419;28;20050;-63
2023/05/15 08:11:18;;;;;;;3.23;2.20;;;;;;;;;;5088072;28;20023;-63
2023/05/15 08:13:44;;;;;;;3.43;2.60;;;;;;;;;;5088084;28;20024;-63
2023/05/15 08:16:11;;;;;;;4.53;3.00;;;;;;;;;;5088037;28;20039;-63
2023/05/15 08:18:38;;;;;;;4.00;2.40;;;;;;;;;;5092018;28;20051;-63
2023/05/15 08:21:05;;;;;;;3.70;2.67;;;;;;;;;;5092664;28;20489;-62
2023/05/15 08:23:31;;;;;;;3.30;2.67;;;;;;;;;;5093192;28;20497;-62
2023/05/15 08:25:58;;;;;;;4.83;3.33;;;;;;;;;;5093069;28;20046;-62
2023/05/15 08:28:25;;;;;;;3.50;2.57;;;;;;;;;;5092917;28;20031;-62
2023/05/15 08:30:52;;;;;;;4.23;3.20;;;;;;;;;;5088282;28;20020;-63
2023/05/15 08:33:19;;;;;;;3.67;2.63;;;;;;;;;;5087735;28;20032;-63
2023/05/15 08:35:45;;;;;;;2.93;2.53;;;;;;;;;;5087776;28;20114;-63
2023/05/15 08:38:12;;;;;;;14.40;3.20;;;;;;;;;;5087154;28;20482;-62
2023/05/15 08:40:41;;;;;;;4.60;3.13;;;;;;;;;;5090978;28;20030;-63
2023/05/15 08:43:18;;;;;;;3.90;2.53;;;;;;;;;;5092623;28;20039;-63
2023/05/15 08:45:45;;;;;;;3.83;2.70;;;;;;;;;;5091441;28;20028;-63
2023/05/15 08:48:14;;;;;;;3.97;3.23;;;;;;;;;;5092695;28;20077;-62
2023/05/15 08:50:42;;;;;;;3.33;2.70;;;;;;;;;;5092564;28;20047;-63
2023/05/15 08:53:11;;;;;;;3.60;2.80;;;;;;;;;;5088301;28;20471;-64
2023/05/15 08:55:38;;;;;;;3.23;2.53;;;;;;;;;;5087300;28;20550;-63
2023/05/15 08:58:04;;;;;;;3.53;2.23;;;;;;;;;;5087600;28;20093;-63
2023/05/15 09:00:31;;;;;;;3.47;2.40;;;;;;;;;;5087353;28;20558;-62
2023/05/15 09:03:01;;;;;;;4.73;3.07;;;;;;;;;;5090974;28;20020;-63
2023/05/15 09:05:28;;;;;;;5.90;2.93;;;;;;;;;;5092519;28;20020;-62
2023/05/15 09:07:56;;;;;;;5.93;2.77;;;;;;;;;;5092111;28;20024;-62
2023/05/15 09:10:23;;;;;;;3.97;3.10;;;;;;;;;;5092399;28;20024;-63
2023/05/15 09:12:51;;;;;;;3.93;3.10;;;;;;;;;;5092353;28;20052;-63
2023/05/15 09:15:23;;;;;;;4.90;2.60;;;;;;;;;;5088251;28;20031;-64
2023/05/15 09:17:50;;;;;;;5.17;2.60;;;;;;;;;;5086218;28;20047;-63
2023/05/15 09:20:27;;;;;;;9.97;3.43;;;;;;;;;;5087363;28;20028;-62
2023/05/15 09:22:54;;;;;;;2.20;1.90;;;;;;;;;;5087272;28;20024;-63
2023/05/15 09:25:33;;;;;;;3.90;2.47;;;;;;;;;;5091011;28;20030;-63
2023/05/15 09:28:02;;;;;;;4.57;3.20;;;;;;;;;;5092184;28;20032;-64
2023/05/15 09:30:30;;;;;;;3.87;2.80;;;;;;;;;;5092169;28;20020;-62
2023/05/15 09:32:59;;;;;;;4.17;2.77;;;;;;;;;;5092021;28;20024;-62
2023/05/15 09:35:39;;;;;;;3.37;2.47;;;;;;;;;;5091017;28;20032;-63
2023/05/15 09:38:10;;;;;;;2.53;2.20;;;;;;;;;;5087002;28;20448;-63
2023/05/15 09:40:38;;;;;;;2.03;1.77;;;;;;;;;;5087043;28;20040;-63
2023/05/15 09:43:05;;;;;;;3.87;2.97;;;;;;;;;;5087764;28;20499;-62
2023/05/15 09:45:31;;;;;;;2.50;2.00;;;;;;;;;;5090404;28;20081;-63
2023/05/15 09:48:04;;;;;;;2.87;2.30;;;;;;;;;;5095591;28;20069;-62
2023/05/15 09:50:38;;;;;;;3.80;2.60;;;;;;;;;;5096008;28;20020;-63
2023/05/15 09:53:05;;;;;;;4.13;2.87;;;;;;;;;;5095975;28;20027;-63
2023/05/15 09:55:33;;;;;;;4.63;2.80;;;;;;;;;;5095817;28;20024;-63
2023/05/15 09:58:16;;;;;;;2.50;1.93;;;;;;;;;;5095221;28;20105;-63
2023/05/15 10:00:44;;;;;;;3.47;2.43;;;;;;;;;;5090566;28;20024;-63
2023/05/15 10:03:11;;;;;;;5.73;2.47;;;;;;;;;;5090532;28;20028;-64
2023/05/15 10:05:41;;;;;;;2.83;2.10;;;;;;;;;;5090548;28;20103;-63
2023/05/15 10:08:08;;;;;;;3.97;2.27;;;;;;;;;;5089263;28;20046;-64
2023/05/15 10:10:35;;;;;;;4.00;2.40;;;;;;;;;;5095104;28;20129;-62
2023/05/15 10:13:05;;;;;;;3.40;2.53;;;;;;;;;;5095485;28;20024;-63
2023/05/15 10:15:32;;;;;;;4.33;3.07;;;;;;;;;;5095424;28;20055;-63
2023/05/15 10:17:59;;;;;;;2.23;1.90;;;;;;;;;;5095390;28;20048;-63
2023/05/15 10:20:27;;;;;;;3.47;2.50;;;;;;;;;;5094393;28;20501;-63
2023/05/15 10:22:58;;;;;;;2.50;2.10;;;;;;;;;;5090293;28;20464;-62
2023/05/15 10:25:33;;;;;;;2.70;2.20;;;;;;;;;;5089955;28;20056;-63
2023/05/15 10:28:00;;;;;;;;;;;;;;;;;;5090814;28;20032;-63
2023/05/15 10:30:27;;;;;;;3.17;2.43;;;;;;;;;;5090565;28;19904;-62
2023/05/15 10:32:55;;;;;;;2.77;2.07;;;;;;;;;;5095194;28;20035;-62
2023/05/15 10:35:22;;;;;;;4.90;2.47;;;;;;;;;;5094965;28;20020;-63
2023/05/15 10:37:49;;;;;;;3.47;2.07;;;;;;;;;;5094836;28;20020;-62
2023/05/15 10:40:16;;;;;;;5.33;2.40;;;;;;;;;;5094612;28;20382;-62
2023/05/15 10:42:46;;;;;;;2.93;2.17;;;;;;;;;;5094272;28;20043;-63
2023/05/15 10:45:13;;;;;;;3.07;2.07;;;;;;;;;;5089769;28;20031;-63
2023/05/15 10:47:41;;;;;;;16.73;2.60;;;;;;;;;;5089801;28;20028;-63
2023/05/15 10:50:08;;;;;;;3.00;2.37;;;;;;;;;;5089814;28;20093;-63
2023/05/15 10:52:38;;;;;;;2.57;1.70;;;;;;;;;;5089914;28;20028;-62
2023/05/15 10:55:09;;;;;;;2.67;2.07;;;;;;;;;;5094480;28;20107;-63
2023/05/15 10:57:36;;;;;;;3.33;2.23;;;;;;;;;;5094782;28;20027;-62
2023/05/15 11:00:04;;;;;;;2.47;1.90;;;;;;;;;;5094430;28;20161;-63
2023/05/15 11:02:37;;;;;;;2.17;1.70;;;;;;;;;;5094943;28;20363;-62
2023/05/15 11:05:04;;;;;;;3.23;2.60;;;;;;;;;;5093522;28;20020;-62
2023/05/15 11:07:31;;;;;;;3.03;2.13;;;;;;;;;;5089052;28;20020;-62
2023/05/15 11:09:58;;;;;;;14.87;2.83;;;;;;;;;;5089479;28;20526;-63
2023/05/15 11:12:25;;;;;;;2.23;1.77;;;;;;;;;;5089115;28;20024;-62
2023/05/15 11:14:54;;;;;;;3.27;2.33;;;;;;;;;;5088077;28;20055;-63
2023/05/15 11:17:23;;;;;;;2.57;1.97;;;;;;;;;;5094277;28;20027;-62
2023/05/15 11:19:50;;;;;;;1.80;1.50;;;;;;;;;;5093933;28;20067;-63
2023/05/15 11:22:25;;;;;;;2.97;1.97;;;;;;;;;;5093930;28;20103;-63
2023/05/15 11:24:52;;;;;;;6.35;4.00;;;;;;;;;;5094136;28;20560;-62
2023/05/15 11:27:20;;;;;;;3.90;2.20;;;;;;;;;;5093133;28;20020;-62
2023/05/15 11:30:04;;;;;;;1.87;1.53;;;;;;;;;;5088805;28;20127;-63
2023/05/15 11:32:32;;;;;;;4.05;2.05;;;;;;;;;;5088605;28;20020;-62
2023/05/15 11:35:02;;;;;;;2.37;1.73;;;;;;;;;;5087491;28;20111;-62
2023/05/15 11:37:29;;;;;;;3.03;1.80;;;;;;;;;;5089983;28;20077;-62
2023/05/15 11:39:56;;;;;;;2.30;1.80;;;;;;;;;;5093536;28;20028;-63
2023/05/15 11:42:23;;;;;;;3.60;1.90;;;;;;;;;;5093888;28;20459;-63
2023/05/15 11:44:49;;;;;;;1.93;1.70;;;;;;;;;;5092306;28;20375;-62
2023/05/15 11:47:16;;;;;;;2.17;1.73;;;;;;;;;;5093431;28;20471;-62
2023/05/15 11:49:43;;;;;;;2.80;2.17;;;;;;;;;;5090915;28;20407;-63
2023/05/15 11:52:10;;;;;;;6.87;1.87;;;;;;;;;;5087097;28;20039;-62
2023/05/15 11:54:37;;;;;;;2.80;2.17;;;;;;;;;;5088327;28;20020;-62
2023/05/15 11:57:07;;;;;;;2.40;2.17;;;;;;;;;;5088281;28;20318;-63
2023/05/15 11:59:34;;;;;;;2.87;2.20;;;;;;;;;;5088988;28;20032;-62
2023/05/15 12:02:00;;;;;;;3.77;2.17;;;;;;;;;;5093133;28;20081;-62
2023/05/15 12:04:27;;;;;;;1.13;1.03;;;;;;;;;;5092730;28;20024;-62
2023/05/15 12:06:55;;;;;;;12.80;2.40;;;;;;;;;;5091547;28;20048;-62
2023/05/15 12:09:26;;;;;;;3.57;1.57;;;;;;;;;;5091852;28;20024;-62
2023/05/15 12:11:53;;;;;;;3.10;1.87;;;;;;;;;;5092024;28;20344;-63
2023/05/15 12:14:29;;;;;;;2.07;1.70;;;;;;;;;;5088049;28;20028;-63
2023/05/15 12:17:05;;;;;;;8.87;1.83;;;;;;;;;;5087529;28;20253;-62
2023/05/15 12:19:33;;;;;;;2.10;1.80;;;;;;;;;;5087651;28;20297;-63
2023/05/15 12:22:00;;;;;;;4.30;2.63;;;;;;;;;;5088954;28;20284;-62
2023/05/15 12:24:26;;;;;;;1.97;1.63;;;;;;;;;;5092894;28;20263;-62
2023/05/15 12:26:53;;;;;;;2.73;1.87;;;;;;;;;;5092842;28;20291;-64
2023/05/15 12:29:20;;;;;;;2.57;1.57;;;;;;;;;;5092788;28;20436;-62
2023/05/15 12:31:47;;;;;;;3.30;2.10;;;;;;;;;;5092545;28;20261;-62
2023/05/15 12:34:14;;;;;;;5.23;1.80;;;;;;;;;;5091605;28;20028;-62
2023/05/15 12:36:44;;;;;;;2.40;1.50;;;;;;;;;;5086194;28;20066;-62
2023/05/15 12:39:11;;;;;;;3.13;2.40;;;;;;;;;;5087628;28;20059;-62
2023/05/15 12:41:38;;;;;;;1.80;1.60;;;;;;;;;;5087650;28;20296;-62
2023/05/15 12:44:05;;;;;;;2.40;1.67;;;;;;;;;;5088268;28;20649;-62
2023/05/15 12:46:32;;;;;;;2.47;2.20;;;;;;;;;;5092244;28;20272;-62
2023/05/15 12:48:59;;;;;;;4.67;2.43;;;;;;;;;;5092531;28;20257;-62
2023/05/15 12:51:28;;;;;;;4.73;3.27;;;;;;;;;;5092598;28;20603;-64
2023/05/15 12:53:58;;;;;;;3.03;2.40;;;;;;;;;;5092298;28;20020;-62
2023/05/15 12:56:25;;;;;;;2.27;1.73;;;;;;;;;;5091312;28;20379;-62
2023/05/15 12:58:53;;;;;;;3.40;2.70;;;;;;;;;;5087544;28;20429;-62
2023/05/15 13:01:21;;;;;;;10.83;2.67;;;;;;;;;;5086878;28;20490;-63
2023/05/15 13:03:48;;;;;;;2.03;1.70;;;;;;;;;;5087258;28;20020;-62
2023/05/15 13:06:16;;;;;;;1.83;1.57;;;;;;;;;;5088123;28;20058;-62
2023/05/15 13:08:43;;;;;;;4.53;2.80;;;;;;;;;;5092315;28;20024;-62
2023/05/15 13:11:13;;;;;;;3.10;2.47;;;;;;;;;;5092172;28;20035;-62
2023/05/15 13:13:42;;;;;;;2.17;1.83;;;;;;;;;;5092471;28;20029;-62
2023/05/15 13:16:18;;;;;;;2.53;1.93;;;;;;;;;;5091869;28;20024;-63
2023/05/15 13:18:45;;;;;;;2.83;2.40;;;;;;;;;;5092736;28;20103;-63
2023/05/15 13:21:11;;;;;;;7.47;3.43;;;;;;;;;;5091295;28;20031;-62
2023/05/15 13:23:38;;;;;;;4.17;2.80;;;;;;;;;;5091636;28;20517;-62
2023/05/15 13:26:08;;;;;;;5.47;2.50;;;;;;;;;;5091295;28;20028;-64
2023/05/15 13:28:34;;;;;;;8.03;3.00;;;;;;;;;;5090627;28;20028;-63
2023/05/15 13:31:01;;;;;;;4.17;2.87;;;;;;;;;;5096092;28;20083;-63
2023/05/15 13:33:28;;;;;;;5.27;2.17;;;;;;;;;;5096269;28;20032;-62
2023/05/15 13:35:56;;;;;;;3.17;2.27;;;;;;;;;;5096145;28;20024;-63
2023/05/15 13:38:23;;;;;;;3.37;2.23;;;;;;;;;;5095772;28;20081;-63
2023/05/15 13:40:49;;;;;;;6.37;2.30;;;;;;;;;;5094846;28;20028;-62
2023/05/15 13:43:16;;;;;;;4.63;2.20;;;;;;;;;;5090904;28;20035;-63
2023/05/15 13:45:43;;;;;;;5.10;2.60;;;;;;;;;;5090397;28;20087;-63
2023/05/15 13:48:10;;;;;;;4.03;2.63;;;;;;;;;;5090757;28;20031;-63
2023/05/15 13:50:36;;;;;;;6.10;2.23;;;;;;;;;;5091533;28;20103;-63
2023/05/15 13:53:03;;;;;;;4.17;2.10;;;;;;;;;;5095917;28;20038;-62
2023/05/15 13:55:30;;;;;;;2.30;1.63;;;;;;;;;;5095788;28;20375;-63
2023/05/15 13:57:57;;;;;;;3.20;1.77;;;;;;;;;;5095656;28;20020;-63
2023/05/15 14:00:24;;;;;;;2.17;1.67;;;;;;;;;;5095575;28;20356;-63
2023/05/15 14:02:50;;;;;;;4.43;1.50;;;;;;;;;;5094191;28;20431;-63
2023/05/15 14:05:17;;;;;;;5.67;2.10;;;;;;;;;;5090535;28;20016;-63
2023/05/15 14:07:44;;;;;;;4.00;1.97;;;;;;;;;;5090460;28;20437;-63
2023/05/15 14:10:11;;;;;;;7.17;2.40;;;;;;;;;;5090356;28;20020;-64
2023/05/15 14:12:38;;;;;;;2.60;1.80;;;;;;;;;;5090412;28;20024;-63
2023/05/15 14:15:05;;;;;;;1.03;0.93;;;;;;;;;;5094052;28;20023;-62
2023/05/15 14:17:32;;;;;;;2.83;2.13;;;;;;;;;;5095292;28;20141;-64
2023/05/15 14:19:59;;;;;;;1.50;1.33;;;;;;;;;;5094788;28;20093;-63
2023/05/15 14:22:26;;;;;;;2.53;1.70;;;;;;;;;;5095319;28;20024;-63
2023/05/15 14:24:53;;;;;;;1.33;1.10;;;;;;;;;;5094877;28;20027;-63
2023/05/15 14:27:20;;;;;;;3.47;2.50;;;;;;;;;;5090174;28;20043;-64
2023/05/15 14:29:47;;;;;;;3.93;2.27;;;;;;;;;;5089477;28;20571;-63
2023/05/15 14:32:15;;;;;;;2.90;1.90;;;;;;;;;;5090013;28;20078;-65
2023/05/15 14:34:41;;;;;;;3.73;1.73;;;;;;;;;;5089517;28;20036;-64
2023/05/15 14:37:08;;;;;;;1.40;1.17;;;;;;;;;;5094640;28;20048;-63
2023/05/15 14:39:35;;;;;;;4.03;1.60;;;;;;;;;;5094157;28;20152;-63
2023/05/15 14:42:02;;;;;;;2.27;1.70;;;;;;;;;;5093746;28;20479;-63
2023/05/15 14:44:29;;;;;;;1.90;1.53;;;;;;;;;;5093749;28;20028;-64
2023/05/15 14:47:06;;;;;;;3.50;2.57;;;;;;;;;;5093793;28;20039;-63